createdAt,value
2022-10-15T00:09:32.884Z,67.62
2022-10-15T00:19:36.002Z,67.21
2022-10-15T00:29:40.740Z,68.25
2022-10-15T00:39:44.075Z,67.18
2022-10-15T00:49:52.026Z,67.80
2022-10-15T00:59:58.689Z,67.75
2022-10-15T01:10:03.857Z,67.85
2022-10-15T01:20:28.530Z,67.80
2022-10-15T01:30:35.614Z,69.03
2022-10-15T01:40:43.936Z,68.09
2022-10-15T01:50:52.454Z,68.61
2022-10-15T02:00:56.127Z,68.19
2022-10-15T02:11:05.979Z,67.74
2022-10-15T02:21:12.991Z,67.34
2022-10-15T02:31:18.173Z,67.75
2022-10-15T02:41:21.748Z,68.33
2022-10-15T02:51:26.379Z,67.52
2022-10-15T03:01:29.469Z,67.30
2022-10-15T03:11:34.123Z,67.20
2022-10-15T03:21:37.273Z,67.51
2022-10-15T03:31:41.708Z,67.36
2022-10-15T03:51:54.091Z,67.86
2022-10-15T04:01:57.175Z,67.02
2022-10-15T04:12:01.627Z,67.76
2022-10-15T04:22:05.363Z,68.04
2022-10-15T04:32:12.145Z,68.12
2022-10-15T04:42:15.320Z,67.95
2022-10-15T04:52:20.061Z,68.21
2022-10-15T05:02:23.278Z,68.39
2022-10-15T05:12:27.759Z,68.57
2022-10-15T05:22:30.855Z,69.08
2022-10-15T05:32:35.323Z,68.03
2022-10-15T05:42:38.428Z,68.43
2022-10-15T05:52:42.944Z,68.38
2022-10-15T06:02:46.131Z,67.42
2022-10-15T06:12:53.342Z,68.02
2022-10-15T06:22:59.754Z,68.76
2022-10-15T06:33:04.194Z,69.28
2022-10-15T06:43:08.387Z,69.11
2022-10-15T06:53:12.860Z,68.62
2022-10-15T07:03:15.883Z,66.76
2022-10-15T07:13:20.347Z,62.22
2022-10-15T07:23:27.004Z,59.53
2022-10-15T07:33:34.337Z,58.82
2022-10-15T07:43:37.846Z,58.39
2022-10-15T07:53:43.906Z,58.25
2022-10-15T08:03:47.406Z,58.73
2022-10-15T08:13:53.771Z,57.87
2022-10-15T08:23:56.996Z,57.14
2022-10-15T08:34:02.382Z,56.19
2022-10-15T08:44:06.047Z,55.79
2022-10-15T08:54:16.525Z,56.82
2022-10-15T09:14:38.273Z,52.30
2022-10-15T09:24:41.633Z,51.59
2022-10-15T09:34:49.831Z,50.42
2022-10-15T09:44:53.621Z,50.60
2022-10-15T09:55:04.402Z,51.18
2022-10-15T10:05:25.372Z,50.11
2022-10-15T10:15:33.424Z,48.35
2022-10-15T10:25:39.939Z,47.21
2022-10-15T10:35:50.142Z,48.54
2022-10-15T10:45:58.979Z,46.38
2022-10-15T10:56:06.153Z,45.20
2022-10-15T11:06:22.715Z,43.89
2022-10-15T11:16:34.649Z,42.41
2022-10-15T11:26:59.649Z,42.69
2022-10-15T11:37:27.550Z,43.91
2022-10-15T11:47:37.747Z,44.83
2022-10-15T11:57:44.149Z,44.51
2022-10-15T12:07:49.313Z,44.02
2022-10-15T12:18:04.883Z,42.69
2022-10-15T12:28:15.839Z,42.11
2022-10-15T12:38:24.774Z,41.91
2022-10-15T12:48:33.475Z,41.58
2022-10-15T12:58:39.042Z,40.94
2022-10-15T13:08:45.711Z,40.79
2022-10-15T13:18:52.256Z,40.59
2022-10-15T13:28:58.691Z,41.00
2022-10-15T13:39:06.001Z,41.98
2022-10-15T13:49:13.355Z,41.57
2022-10-15T13:59:19.348Z,40.77
2022-10-15T14:09:26.885Z,40.72
2022-10-15T14:19:32.805Z,41.74
2022-10-15T14:29:41.420Z,43.12
2022-10-15T14:39:49.327Z,43.35
2022-10-15T14:49:54.422Z,42.67
2022-10-15T14:59:59.251Z,43.33
2022-10-15T15:10:02.293Z,44.35
2022-10-15T15:20:08.183Z,45.31
2022-10-15T15:30:17.024Z,46.37
2022-10-15T15:40:21.538Z,47.11
2022-10-15T15:50:24.673Z,48.00
2022-10-15T16:00:29.167Z,49.48
2022-10-15T16:10:32.188Z,50.84
2022-10-15T16:20:39.560Z,51.66
2022-10-15T16:30:42.665Z,52.75
2022-10-15T16:40:48.391Z,53.47
2022-10-15T16:51:00.279Z,53.97
2022-10-15T17:01:07.250Z,54.82
2022-10-15T17:11:10.913Z,56.03
2022-10-15T17:21:17.042Z,56.41
2022-10-15T17:31:21.591Z,57.18
2022-10-15T17:41:28.035Z,57.58
2022-10-15T17:51:32.424Z,58.49
2022-10-15T18:01:58.379Z,58.83
2022-10-15T18:12:02.951Z,59.39
2022-10-15T18:22:07.310Z,59.86
2022-10-15T18:32:10.352Z,61.06
2022-10-15T18:42:14.761Z,62.03
2022-10-15T18:52:21.920Z,61.62
2022-10-15T19:02:39.632Z,61.58
2022-10-15T19:12:42.737Z,61.64
2022-10-15T19:22:47.350Z,61.25
2022-10-15T19:32:50.792Z,61.14
2022-10-15T19:42:55.220Z,61.87
2022-10-15T19:52:58.383Z,62.63
2022-10-15T20:03:02.925Z,62.01
2022-10-15T20:13:06.025Z,62.16
2022-10-15T20:23:11.799Z,62.43
2022-10-15T20:33:15.099Z,62.64
2022-10-15T20:43:21.909Z,62.78
2022-10-15T20:53:25.670Z,62.82
2022-10-15T21:03:31.193Z,63.32
2022-10-15T21:13:34.479Z,63.14
2022-10-15T21:23:40.164Z,63.60
2022-10-15T21:33:43.701Z,63.67
2022-10-15T21:53:51.393Z,63.77
2022-10-15T22:04:00.469Z,63.77
2022-10-15T22:14:04.948Z,64.12
2022-10-15T22:24:12.255Z,64.65
2022-10-15T22:34:15.551Z,65.03
2022-10-15T22:44:21.648Z,64.95
2022-10-15T22:54:24.836Z,64.71
2022-10-15T23:04:29.356Z,65.13
2022-10-15T23:14:32.442Z,65.70
2022-10-15T23:24:36.902Z,65.23
2022-10-15T23:34:40.310Z,65.53
2022-10-15T23:44:44.733Z,65.22
2022-10-15T23:54:47.814Z,65.10
